sensor_id;sensor_type;location;lat;lon;timestamp;P1;durP1;ratioP1;P2;durP2;ratioP2
1020;SDS011;499;42.648;23.270;2023-03-11T00:00:39;4.00;;;3.20;;
1020;SDS011;499;42.648;23.270;2023-03-11T00:03:10;3.80;;;3.40;;
1020;SDS011;499;42.648;23.270;2023-03-11T00:05:40;3.43;;;3.03;;
1020;SDS011;499;42.648;23.270;2023-03-11T00:08:09;4.67;;;3.80;;
1020;SDS011;499;42.648;23.270;2023-03-11T00:10:41;2.13;;;2.03;;
1020;SDS011;499;42.648;23.270;2023-03-11T00:13:11;2.27;;;1.20;;
1020;SDS011;499;42.648;23.270;2023-03-11T00:15:39;1.60;;;1.10;;
1020;SDS011;499;42.648;23.270;2023-03-11T00:18:07;1.17;;;0.87;;
1020;SDS011;499;42.648;23.270;2023-03-11T00:20:36;0.90;;;0.77;;
1020;SDS011;499;42.648;23.270;2023-03-11T00:23:04;1.50;;;1.00;;
1020;SDS011;499;42.648;23.270;2023-03-11T00:25:35;0.93;;;0.83;;
1020;SDS011;499;42.648;23.270;2023-03-11T00:28:03;0.70;;;0.60;;
1020;SDS011;499;42.648;23.270;2023-03-11T00:30:31;0.80;;;0.80;;
1020;SDS011;499;42.648;23.270;2023-03-11T00:32:59;0.97;;;0.80;;
1020;SDS011;499;42.648;23.270;2023-03-11T00:35:27;3.57;;;0.70;;
1020;SDS011;499;42.648;23.270;2023-03-11T00:37:55;1.10;;;0.90;;
1020;SDS011;499;42.648;23.270;2023-03-11T00:40:28;1.30;;;0.80;;
1020;SDS011;499;42.648;23.270;2023-03-11T00:42:58;1.23;;;0.90;;
1020;SDS011;499;42.648;23.270;2023-03-11T00:45:26;0.87;;;0.67;;
1020;SDS011;499;42.648;23.270;2023-03-11T00:47:53;0.70;;;0.60;;
1020;SDS011;499;42.648;23.270;2023-03-11T00:50:22;0.80;;;0.70;;
1020;SDS011;499;42.648;23.270;2023-03-11T00:52:51;0.80;;;0.63;;
1020;SDS011;499;42.648;23.270;2023-03-11T00:55:20;0.80;;;0.67;;
1020;SDS011;499;42.648;23.270;2023-03-11T00:57:50;1.27;;;0.90;;
1020;SDS011;499;42.648;23.270;2023-03-11T01:00:21;1.07;;;0.77;;
1020;SDS011;499;42.648;23.270;2023-03-11T01:02:50;1.10;;;1.00;;
1020;SDS011;499;42.648;23.270;2023-03-11T01:05:17;1.00;;;0.80;;
1020;SDS011;499;42.648;23.270;2023-03-11T01:07:45;1.00;;;0.87;;
1020;SDS011;499;42.648;23.270;2023-03-11T01:10:12;0.83;;;0.70;;
1020;SDS011;499;42.648;23.270;2023-03-11T01:12:40;1.20;;;0.83;;
1020;SDS011;499;42.648;23.270;2023-03-11T01:15:08;1.03;;;0.90;;
1020;SDS011;499;42.648;23.270;2023-03-11T01:17:42;0.70;;;0.60;;
1020;SDS011;499;42.648;23.270;2023-03-11T01:20:10;0.80;;;0.77;;
1020;SDS011;499;42.648;23.270;2023-03-11T01:22:38;0.83;;;0.77;;
1020;SDS011;499;42.648;23.270;2023-03-11T01:25:05;1.10;;;1.00;;
1020;SDS011;499;42.648;23.270;2023-03-11T01:27:33;1.30;;;1.10;;
1020;SDS011;499;42.648;23.270;2023-03-11T01:30:03;1.23;;;0.80;;
1020;SDS011;499;42.648;23.270;2023-03-11T01:32:31;1.03;;;0.93;;
1020;SDS011;499;42.648;23.270;2023-03-11T01:35:00;1.20;;;1.07;;
1020;SDS011;499;42.648;23.270;2023-03-11T01:37:27;1.53;;;1.00;;
1020;SDS011;499;42.648;23.270;2023-03-11T01:39:54;1.30;;;0.90;;
1020;SDS011;499;42.648;23.270;2023-03-11T01:42:21;1.90;;;1.70;;
1020;SDS011;499;42.648;23.270;2023-03-11T01:44:48;0.80;;;0.80;;
1020;SDS011;499;42.648;23.270;2023-03-11T01:47:31;1.37;;;0.97;;
1020;SDS011;499;42.648;23.270;2023-03-11T01:50:04;1.10;;;1.00;;
1020;SDS011;499;42.648;23.270;2023-03-11T01:52:39;0.70;;;0.50;;
1020;SDS011;499;42.648;23.270;2023-03-11T01:55:08;1.40;;;1.10;;
1020;SDS011;499;42.648;23.270;2023-03-11T01:57:36;1.60;;;1.23;;
1020;SDS011;499;42.648;23.270;2023-03-11T02:00:10;1.23;;;1.13;;
1020;SDS011;499;42.648;23.270;2023-03-11T02:02:41;1.57;;;1.10;;
1020;SDS011;499;42.648;23.270;2023-03-11T02:05:13;1.20;;;1.00;;
1020;SDS011;499;42.648;23.270;2023-03-11T02:07:40;1.50;;;1.27;;
1020;SDS011;499;42.648;23.270;2023-03-11T02:10:08;2.03;;;1.87;;
1020;SDS011;499;42.648;23.270;2023-03-11T02:12:37;2.50;;;2.07;;
1020;SDS011;499;42.648;23.270;2023-03-11T02:15:06;0.90;;;0.70;;
1020;SDS011;499;42.648;23.270;2023-03-11T02:17:35;1.13;;;1.03;;
1020;SDS011;499;42.648;23.270;2023-03-11T02:20:07;1.10;;;1.00;;
1020;SDS011;499;42.648;23.270;2023-03-11T02:22:43;0.73;;;0.70;;
1020;SDS011;499;42.648;23.270;2023-03-11T02:25:13;0.90;;;0.70;;
1020;SDS011;499;42.648;23.270;2023-03-11T02:27:48;0.80;;;0.70;;
1020;SDS011;499;42.648;23.270;2023-03-11T02:30:18;0.90;;;0.80;;
1020;SDS011;499;42.648;23.270;2023-03-11T02:32:47;0.80;;;0.60;;
1020;SDS011;499;42.648;23.270;2023-03-11T02:35:15;1.20;;;0.90;;
1020;SDS011;499;42.648;23.270;2023-03-11T02:37:43;1.20;;;0.93;;
1020;SDS011;499;42.648;23.270;2023-03-11T02:40:30;1.00;;;0.90;;
1020;SDS011;499;42.648;23.270;2023-03-11T02:43:08;0.90;;;0.70;;
1020;SDS011;499;42.648;23.270;2023-03-11T02:45:36;0.80;;;0.60;;
1020;SDS011;499;42.648;23.270;2023-03-11T02:48:05;0.80;;;0.70;;
1020;SDS011;499;42.648;23.270;2023-03-11T02:50:35;0.90;;;0.70;;
1020;SDS011;499;42.648;23.270;2023-03-11T02:53:02;0.80;;;0.70;;
1020;SDS011;499;42.648;23.270;2023-03-11T02:55:30;0.90;;;0.60;;
1020;SDS011;499;42.648;23.270;2023-03-11T02:57:57;0.87;;;0.70;;
1020;SDS011;499;42.648;23.270;2023-03-11T03:00:25;1.00;;;0.67;;
1020;SDS011;499;42.648;23.270;2023-03-11T03:02:52;0.90;;;0.70;;
1020;SDS011;499;42.648;23.270;2023-03-11T03:05:20;0.80;;;0.60;;
1020;SDS011;499;42.648;23.270;2023-03-11T03:07:48;0.80;;;0.60;;
1020;SDS011;499;42.648;23.270;2023-03-11T03:10:19;0.80;;;0.60;;
1020;SDS011;499;42.648;23.270;2023-03-11T03:12:47;0.90;;;0.60;;
1020;SDS011;499;42.648;23.270;2023-03-11T03:15:16;0.80;;;0.70;;
1020;SDS011;499;42.648;23.270;2023-03-11T03:17:47;0.80;;;0.60;;
1020;SDS011;499;42.648;23.270;2023-03-11T03:20:18;0.80;;;0.60;;
1020;SDS011;499;42.648;23.270;2023-03-11T03:22:46;0.80;;;0.60;;
1020;SDS011;499;42.648;23.270;2023-03-11T03:25:14;0.80;;;0.60;;
1020;SDS011;499;42.648;23.270;2023-03-11T03:27:44;0.80;;;0.60;;
1020;SDS011;499;42.648;23.270;2023-03-11T03:30:12;1.20;;;0.60;;
1020;SDS011;499;42.648;23.270;2023-03-11T03:32:39;0.90;;;0.60;;
1020;SDS011;499;42.648;23.270;2023-03-11T03:35:08;0.80;;;0.60;;
1020;SDS011;499;42.648;23.270;2023-03-11T03:37:36;0.90;;;0.70;;
1020;SDS011;499;42.648;23.270;2023-03-11T03:40:05;0.80;;;0.70;;
1020;SDS011;499;42.648;23.270;2023-03-11T03:42:36;0.80;;;0.50;;
1020;SDS011;499;42.648;23.270;2023-03-11T03:45:05;0.90;;;0.80;;
1020;SDS011;499;42.648;23.270;2023-03-11T03:47:33;0.90;;;0.70;;
1020;SDS011;499;42.648;23.270;2023-03-11T03:50:01;0.80;;;0.60;;
1020;SDS011;499;42.648;23.270;2023-03-11T03:52:30;0.90;;;0.63;;
1020;SDS011;499;42.648;23.270;2023-03-11T03:54:57;1.10;;;0.67;;
1020;SDS011;499;42.648;23.270;2023-03-11T03:57:24;0.80;;;0.60;;
1020;SDS011;499;42.648;23.270;2023-03-11T03:59:51;0.80;;;0.60;;
1020;SDS011;499;42.648;23.270;2023-03-11T04:02:18;1.00;;;0.60;;
1020;SDS011;499;42.648;23.270;2023-03-11T04:04:45;0.80;;;0.50;;
1020;SDS011;499;42.648;23.270;2023-03-11T04:07:15;0.80;;;0.60;;
1020;SDS011;499;42.648;23.270;2023-03-11T04:09:43;0.80;;;0.50;;
1020;SDS011;499;42.648;23.270;2023-03-11T04:12:12;0.80;;;0.60;;
1020;SDS011;499;42.648;23.270;2023-03-11T04:14:41;0.80;;;0.60;;
1020;SDS011;499;42.648;23.270;2023-03-11T04:17:12;0.80;;;0.60;;
1020;SDS011;499;42.648;23.270;2023-03-11T04:19:42;0.90;;;0.60;;
1020;SDS011;499;42.648;23.270;2023-03-11T04:22:11;0.90;;;0.60;;
1020;SDS011;499;42.648;23.270;2023-03-11T04:24:38;1.20;;;0.80;;
1020;SDS011;499;42.648;23.270;2023-03-11T04:27:07;0.80;;;0.60;;
1020;SDS011;499;42.648;23.270;2023-03-11T04:29:34;0.90;;;0.60;;
1020;SDS011;499;42.648;23.270;2023-03-11T04:32:01;0.80;;;0.60;;
1020;SDS011;499;42.648;23.270;2023-03-11T04:34:31;0.93;;;0.60;;
1020;SDS011;499;42.648;23.270;2023-03-11T04:36:58;0.80;;;0.50;;
1020;SDS011;499;42.648;23.270;2023-03-11T04:39:25;0.80;;;0.60;;
1020;SDS011;499;42.648;23.270;2023-03-11T04:41:52;0.90;;;0.60;;
1020;SDS011;499;42.648;23.270;2023-03-11T04:44:21;0.80;;;0.60;;
1020;SDS011;499;42.648;23.270;2023-03-11T04:46:48;0.80;;;0.60;;
1020;SDS011;499;42.648;23.270;2023-03-11T04:49:15;0.80;;;0.60;;
1020;SDS011;499;42.648;23.270;2023-03-11T04:51:42;0.80;;;0.60;;
1020;SDS011;499;42.648;23.270;2023-03-11T04:54:09;0.90;;;0.60;;
1020;SDS011;499;42.648;23.270;2023-03-11T04:56:39;1.00;;;0.60;;
1020;SDS011;499;42.648;23.270;2023-03-11T04:59:06;0.80;;;0.60;;
1020;SDS011;499;42.648;23.270;2023-03-11T05:01:34;0.83;;;0.53;;
1020;SDS011;499;42.648;23.270;2023-03-11T05:04:01;0.80;;;0.60;;
1020;SDS011;499;42.648;23.270;2023-03-11T05:06:29;0.80;;;0.60;;
1020;SDS011;499;42.648;23.270;2023-03-11T05:08:56;0.80;;;0.50;;
1020;SDS011;499;42.648;23.270;2023-03-11T05:11:23;1.00;;;0.63;;
1020;SDS011;499;42.648;23.270;2023-03-11T05:13:50;0.80;;;0.60;;
1020;SDS011;499;42.648;23.270;2023-03-11T05:16:17;0.80;;;0.60;;
1020;SDS011;499;42.648;23.270;2023-03-11T05:18:45;0.90;;;0.60;;
1020;SDS011;499;42.648;23.270;2023-03-11T05:21:12;0.80;;;0.70;;
1020;SDS011;499;42.648;23.270;2023-03-11T05:23:40;0.80;;;0.53;;
1020;SDS011;499;42.648;23.270;2023-03-11T05:26:09;0.80;;;0.50;;
1020;SDS011;499;42.648;23.270;2023-03-11T05:28:36;0.90;;;0.60;;
1020;SDS011;499;42.648;23.270;2023-03-11T05:31:06;1.10;;;0.67;;
1020;SDS011;499;42.648;23.270;2023-03-11T05:33:33;0.90;;;0.60;;
1020;SDS011;499;42.648;23.270;2023-03-11T05:36:06;0.90;;;0.60;;
1020;SDS011;499;42.648;23.270;2023-03-11T05:38:35;0.87;;;0.57;;
1020;SDS011;499;42.648;23.270;2023-03-11T05:41:02;0.80;;;0.60;;
1020;SDS011;499;42.648;23.270;2023-03-11T05:43:30;1.00;;;0.67;;
1020;SDS011;499;42.648;23.270;2023-03-11T05:45:59;0.80;;;0.50;;
1020;SDS011;499;42.648;23.270;2023-03-11T05:48:26;0.80;;;0.57;;
1020;SDS011;499;42.648;23.270;2023-03-11T05:50:53;1.90;;;0.70;;
1020;SDS011;499;42.648;23.270;2023-03-11T05:53:22;0.80;;;0.60;;
1020;SDS011;499;42.648;23.270;2023-03-11T05:55:54;0.80;;;0.60;;
1020;SDS011;499;42.648;23.270;2023-03-11T05:58:22;1.27;;;0.97;;
1020;SDS011;499;42.648;23.270;2023-03-11T06:00:49;0.80;;;0.63;;
1020;SDS011;499;42.648;23.270;2023-03-11T06:03:16;0.80;;;0.60;;
1020;SDS011;499;42.648;23.270;2023-03-11T06:05:43;0.80;;;0.60;;
1020;SDS011;499;42.648;23.270;2023-03-11T06:08:10;0.83;;;0.63;;
1020;SDS011;499;42.648;23.270;2023-03-11T06:10:39;0.80;;;0.60;;
1020;SDS011;499;42.648;23.270;2023-03-11T06:13:07;0.80;;;0.60;;
1020;SDS011;499;42.648;23.270;2023-03-11T06:15:34;0.80;;;0.60;;
1020;SDS011;499;42.648;23.270;2023-03-11T06:18:02;0.80;;;0.60;;
1020;SDS011;499;42.648;23.270;2023-03-11T06:20:30;0.80;;;0.67;;
1020;SDS011;499;42.648;23.270;2023-03-11T06:23:00;0.80;;;0.60;;
1020;SDS011;499;42.648;23.270;2023-03-11T06:25:32;0.80;;;0.60;;
1020;SDS011;499;42.648;23.270;2023-03-11T06:28:01;0.80;;;0.60;;
1020;SDS011;499;42.648;23.270;2023-03-11T06:30:31;1.00;;;0.90;;
1020;SDS011;499;42.648;23.270;2023-03-11T06:32:58;1.00;;;0.80;;
1020;SDS011;499;42.648;23.270;2023-03-11T06:35:25;0.90;;;0.70;;
1020;SDS011;499;42.648;23.270;2023-03-11T06:37:52;1.00;;;0.87;;
1020;SDS011;499;42.648;23.270;2023-03-11T06:40:21;0.90;;;0.70;;
1020;SDS011;499;42.648;23.270;2023-03-11T06:42:48;1.03;;;0.90;;
1020;SDS011;499;42.648;23.270;2023-03-11T06:45:16;0.93;;;0.80;;
1020;SDS011;499;42.648;23.270;2023-03-11T06:47:45;0.80;;;0.60;;
1020;SDS011;499;42.648;23.270;2023-03-11T06:50:12;1.20;;;0.70;;
1020;SDS011;499;42.648;23.270;2023-03-11T06:52:39;0.80;;;0.60;;
1020;SDS011;499;42.648;23.270;2023-03-11T06:55:09;0.80;;;0.60;;
1020;SDS011;499;42.648;23.270;2023-03-11T06:57:36;1.20;;;0.83;;
1020;SDS011;499;42.648;23.270;2023-03-11T07:00:03;1.63;;;0.80;;
1020;SDS011;499;42.648;23.270;2023-03-11T07:02:36;0.90;;;0.70;;
1020;SDS011;499;42.648;23.270;2023-03-11T07:05:03;1.10;;;0.90;;
1020;SDS011;499;42.648;23.270;2023-03-11T07:07:34;0.90;;;0.60;;
1020;SDS011;499;42.648;23.270;2023-03-11T07:10:01;0.80;;;0.60;;
1020;SDS011;499;42.648;23.270;2023-03-11T07:12:28;0.80;;;0.60;;
1020;SDS011;499;42.648;23.270;2023-03-11T07:14:55;1.27;;;1.10;;
1020;SDS011;499;42.648;23.270;2023-03-11T07:17:23;1.00;;;0.70;;
1020;SDS011;499;42.648;23.270;2023-03-11T07:19:52;0.80;;;0.70;;
1020;SDS011;499;42.648;23.270;2023-03-11T07:22:21;1.53;;;0.80;;
1020;SDS011;499;42.648;23.270;2023-03-11T07:24:48;0.90;;;0.70;;
1020;SDS011;499;42.648;23.270;2023-03-11T07:27:15;1.77;;;0.90;;
1020;SDS011;499;42.648;23.270;2023-03-11T07:29:42;0.90;;;0.70;;
1020;SDS011;499;42.648;23.270;2023-03-11T07:32:10;1.20;;;0.70;;
1020;SDS011;499;42.648;23.270;2023-03-11T07:34:37;1.43;;;1.00;;
1020;SDS011;499;42.648;23.270;2023-03-11T07:37:05;0.90;;;0.60;;
1020;SDS011;499;42.648;23.270;2023-03-11T07:39:32;0.90;;;0.67;;
1020;SDS011;499;42.648;23.270;2023-03-11T07:41:59;0.83;;;0.60;;
1020;SDS011;499;42.648;23.270;2023-03-11T07:44:26;0.80;;;0.60;;
1020;SDS011;499;42.648;23.270;2023-03-11T07:46:53;1.00;;;0.70;;
1020;SDS011;499;42.648;23.270;2023-03-11T07:49:20;0.80;;;0.50;;
1020;SDS011;499;42.648;23.270;2023-03-11T07:51:47;0.80;;;0.50;;
1020;SDS011;499;42.648;23.270;2023-03-11T07:54:18;0.87;;;0.57;;
1020;SDS011;499;42.648;23.270;2023-03-11T07:56:45;1.60;;;1.50;;
1020;SDS011;499;42.648;23.270;2023-03-11T07:59:12;0.90;;;0.70;;
1020;SDS011;499;42.648;23.270;2023-03-11T08:01:39;0.80;;;0.60;;
1020;SDS011;499;42.648;23.270;2023-03-11T08:04:11;0.90;;;0.60;;
1020;SDS011;499;42.648;23.270;2023-03-11T08:06:41;1.60;;;0.80;;
1020;SDS011;499;42.648;23.270;2023-03-11T08:09:09;0.90;;;0.60;;
1020;SDS011;499;42.648;23.270;2023-03-11T08:11:38;0.83;;;0.60;;
1020;SDS011;499;42.648;23.270;2023-03-11T08:14:05;0.90;;;0.67;;
1020;SDS011;499;42.648;23.270;2023-03-11T08:16:33;1.00;;;0.67;;
1020;SDS011;499;42.648;23.270;2023-03-11T08:19:01;1.77;;;1.00;;
1020;SDS011;499;42.648;23.270;2023-03-11T08:21:30;1.00;;;0.60;;
1020;SDS011;499;42.648;23.270;2023-03-11T08:23:57;1.10;;;0.60;;
1020;SDS011;499;42.648;23.270;2023-03-11T08:26:26;0.90;;;0.63;;
1020;SDS011;499;42.648;23.270;2023-03-11T08:28:55;1.00;;;0.70;;
1020;SDS011;499;42.648;23.270;2023-03-11T08:31:23;1.17;;;0.83;;
1020;SDS011;499;42.648;23.270;2023-03-11T08:33:52;0.90;;;0.60;;
1020;SDS011;499;42.648;23.270;2023-03-11T08:36:22;1.00;;;0.67;;
1020;SDS011;499;42.648;23.270;2023-03-11T08:38:49;0.90;;;0.60;;
1020;SDS011;499;42.648;23.270;2023-03-11T08:41:16;0.90;;;0.60;;
1020;SDS011;499;42.648;23.270;2023-03-11T08:43:43;0.90;;;0.60;;
1020;SDS011;499;42.648;23.270;2023-03-11T08:46:14;1.00;;;0.70;;
1020;SDS011;499;42.648;23.270;2023-03-11T08:48:45;0.90;;;0.60;;
1020;SDS011;499;42.648;23.270;2023-03-11T08:51:12;1.20;;;0.70;;
1020;SDS011;499;42.648;23.270;2023-03-11T08:53:40;1.40;;;0.90;;
1020;SDS011;499;42.648;23.270;2023-03-11T08:56:07;1.30;;;0.90;;
1020;SDS011;499;42.648;23.270;2023-03-11T08:58:34;1.00;;;0.60;;
1020;SDS011;499;42.648;23.270;2023-03-11T09:01:01;1.00;;;0.60;;
1020;SDS011;499;42.648;23.270;2023-03-11T09:03:31;1.30;;;0.70;;
1020;SDS011;499;42.648;23.270;2023-03-11T09:06:00;1.00;;;0.60;;
1020;SDS011;499;42.648;23.270;2023-03-11T09:08:29;1.07;;;0.60;;
1020;SDS011;499;42.648;23.270;2023-03-11T09:10:56;0.90;;;0.57;;
1020;SDS011;499;42.648;23.270;2023-03-11T09:13:24;1.00;;;0.60;;
1020;SDS011;499;42.648;23.270;2023-03-11T09:15:51;1.97;;;1.00;;
1020;SDS011;499;42.648;23.270;2023-03-11T09:18:19;1.00;;;0.73;;
1020;SDS011;499;42.648;23.270;2023-03-11T09:20:48;1.00;;;0.70;;
1020;SDS011;499;42.648;23.270;2023-03-11T09:23:15;1.20;;;0.67;;
1020;SDS011;499;42.648;23.270;2023-03-11T09:25:43;1.00;;;0.60;;
1020;SDS011;499;42.648;23.270;2023-03-11T09:28:11;1.60;;;1.20;;
1020;SDS011;499;42.648;23.270;2023-03-11T09:30:38;1.00;;;0.80;;
1020;SDS011;499;42.648;23.270;2023-03-11T09:33:05;1.10;;;0.57;;
1020;SDS011;499;42.648;23.270;2023-03-11T09:35:32;1.10;;;0.77;;
1020;SDS011;499;42.648;23.270;2023-03-11T09:38:01;1.70;;;0.93;;
1020;SDS011;499;42.648;23.270;2023-03-11T09:40:31;0.90;;;0.53;;
1020;SDS011;499;42.648;23.270;2023-03-11T09:43:14;0.90;;;0.60;;
1020;SDS011;499;42.648;23.270;2023-03-11T09:45:52;1.07;;;0.97;;
1020;SDS011;499;42.648;23.270;2023-03-11T09:48:25;1.13;;;1.00;;
1020;SDS011;499;42.648;23.270;2023-03-11T09:51:02;1.00;;;0.73;;
1020;SDS011;499;42.648;23.270;2023-03-11T09:53:38;1.13;;;0.70;;
1020;SDS011;499;42.648;23.270;2023-03-11T09:56:08;1.03;;;0.67;;
1020;SDS011;499;42.648;23.270;2023-03-11T09:58:37;1.10;;;0.80;;
1020;SDS011;499;42.648;23.270;2023-03-11T10:01:10;0.90;;;0.50;;
1020;SDS011;499;42.648;23.270;2023-03-11T10:03:43;0.90;;;0.60;;
1020;SDS011;499;42.648;23.270;2023-03-11T10:06:13;1.03;;;0.63;;
1020;SDS011;499;42.648;23.270;2023-03-11T10:08:45;1.17;;;0.80;;
1020;SDS011;499;42.648;23.270;2023-03-11T10:11:18;1.60;;;0.90;;
1020;SDS011;499;42.648;23.270;2023-03-11T10:13:57;1.00;;;0.83;;
1020;SDS011;499;42.648;23.270;2023-03-11T10:16:33;1.07;;;0.73;;
1020;SDS011;499;42.648;23.270;2023-03-11T10:19:10;1.13;;;0.77;;
1020;SDS011;499;42.648;23.270;2023-03-11T10:21:46;1.40;;;0.90;;
1020;SDS011;499;42.648;23.270;2023-03-11T10:24:32;0.93;;;0.60;;
1020;SDS011;499;42.648;23.270;2023-03-11T10:27:08;1.43;;;0.73;;
1020;SDS011;499;42.648;23.270;2023-03-11T10:29:42;1.00;;;0.70;;
1020;SDS011;499;42.648;23.270;2023-03-11T10:32:16;1.07;;;0.67;;
1020;SDS011;499;42.648;23.270;2023-03-11T10:34:48;1.33;;;0.83;;
1020;SDS011;499;42.648;23.270;2023-03-11T10:37:20;1.70;;;1.33;;
1020;SDS011;499;42.648;23.270;2023-03-11T10:39:52;1.20;;;0.70;;
1020;SDS011;499;42.648;23.270;2023-03-11T10:42:21;1.00;;;0.50;;
1020;SDS011;499;42.648;23.270;2023-03-11T10:44:50;1.20;;;0.67;;
1020;SDS011;499;42.648;23.270;2023-03-11T10:47:19;1.00;;;0.70;;
1020;SDS011;499;42.648;23.270;2023-03-11T10:49:47;1.00;;;0.70;;
1020;SDS011;499;42.648;23.270;2023-03-11T10:52:14;1.20;;;0.70;;
1020;SDS011;499;42.648;23.270;2023-03-11T10:54:42;1.00;;;0.60;;
1020;SDS011;499;42.648;23.270;2023-03-11T10:57:20;1.10;;;0.80;;
1020;SDS011;499;42.648;23.270;2023-03-11T10:59:52;1.40;;;0.93;;
1020;SDS011;499;42.648;23.270;2023-03-11T11:02:21;1.20;;;1.10;;
1020;SDS011;499;42.648;23.270;2023-03-11T11:05:01;1.20;;;0.77;;
1020;SDS011;499;42.648;23.270;2023-03-11T11:07:31;1.40;;;1.00;;
1020;SDS011;499;42.648;23.270;2023-03-11T11:10:13;1.27;;;0.97;;
1020;SDS011;499;42.648;23.270;2023-03-11T11:12:54;1.50;;;0.90;;
1020;SDS011;499;42.648;23.270;2023-03-11T11:15:24;2.13;;;1.50;;
1020;SDS011;499;42.648;23.270;2023-03-11T11:17:53;1.07;;;0.70;;
1020;SDS011;499;42.648;23.270;2023-03-11T11:20:23;1.47;;;1.03;;
1020;SDS011;499;42.648;23.270;2023-03-11T11:22:51;1.10;;;0.87;;
1020;SDS011;499;42.648;23.270;2023-03-11T11:25:23;1.10;;;0.70;;
1020;SDS011;499;42.648;23.270;2023-03-11T11:27:55;1.70;;;1.10;;
1020;SDS011;499;42.648;23.270;2023-03-11T11:30:26;1.10;;;0.90;;
1020;SDS011;499;42.648;23.270;2023-03-11T11:32:54;2.53;;;1.07;;
1020;SDS011;499;42.648;23.270;2023-03-11T11:35:27;1.73;;;0.90;;
1020;SDS011;499;42.648;23.270;2023-03-11T11:37:54;1.77;;;1.53;;
1020;SDS011;499;42.648;23.270;2023-03-11T11:40:28;1.10;;;0.60;;
1020;SDS011;499;42.648;23.270;2023-03-11T11:42:59;1.20;;;0.70;;
1020;SDS011;499;42.648;23.270;2023-03-11T11:45:33;1.47;;;1.37;;
1020;SDS011;499;42.648;23.270;2023-03-11T11:48:04;1.10;;;0.80;;
1020;SDS011;499;42.648;23.270;2023-03-11T11:50:40;1.00;;;0.63;;
1020;SDS011;499;42.648;23.270;2023-03-11T11:53:14;1.37;;;0.70;;
1020;SDS011;499;42.648;23.270;2023-03-11T11:55:49;1.90;;;1.47;;
1020;SDS011;499;42.648;23.270;2023-03-11T11:58:19;0.97;;;0.63;;
1020;SDS011;499;42.648;23.270;2023-03-11T12:00:49;4.07;;;0.93;;
1020;SDS011;499;42.648;23.270;2023-03-11T12:03:33;1.00;;;0.60;;
1020;SDS011;499;42.648;23.270;2023-03-11T12:06:11;1.00;;;0.60;;
1020;SDS011;499;42.648;23.270;2023-03-11T12:08:49;1.17;;;0.70;;
1020;SDS011;499;42.648;23.270;2023-03-11T12:11:25;1.30;;;0.60;;
1020;SDS011;499;42.648;23.270;2023-03-11T12:14:02;1.77;;;0.63;;
1020;SDS011;499;42.648;23.270;2023-03-11T12:16:35;1.23;;;0.80;;
1020;SDS011;499;42.648;23.270;2023-03-11T12:19:13;1.00;;;0.60;;
1020;SDS011;499;42.648;23.270;2023-03-11T12:21:54;1.10;;;0.70;;
1020;SDS011;499;42.648;23.270;2023-03-11T12:24:50;0.93;;;0.50;;
1020;SDS011;499;42.648;23.270;2023-03-11T12:27:29;0.90;;;0.50;;
1020;SDS011;499;42.648;23.270;2023-03-11T12:30:02;1.20;;;0.77;;
1020;SDS011;499;42.648;23.270;2023-03-11T12:32:38;1.83;;;1.13;;
1020;SDS011;499;42.648;23.270;2023-03-11T12:35:14;1.00;;;0.60;;
1020;SDS011;499;42.648;23.270;2023-03-11T12:37:54;1.27;;;0.87;;
1020;SDS011;499;42.648;23.270;2023-03-11T12:43:25;1.13;;;0.80;;
1020;SDS011;499;42.648;23.270;2023-03-11T12:45:56;1.10;;;0.93;;
1020;SDS011;499;42.648;23.270;2023-03-11T12:48:31;1.10;;;0.70;;
1020;SDS011;499;42.648;23.270;2023-03-11T12:51:00;1.43;;;1.00;;
1020;SDS011;499;42.648;23.270;2023-03-11T12:53:41;0.90;;;0.50;;
1020;SDS011;499;42.648;23.270;2023-03-11T12:56:12;1.00;;;0.70;;
1020;SDS011;499;42.648;23.270;2023-03-11T12:58:56;1.00;;;0.60;;
1020;SDS011;499;42.648;23.270;2023-03-11T13:01:52;0.90;;;0.60;;
1020;SDS011;499;42.648;23.270;2023-03-11T13:04:29;1.10;;;0.83;;
1020;SDS011;499;42.648;23.270;2023-03-11T13:10:04;1.10;;;0.60;;
1020;SDS011;499;42.648;23.270;2023-03-11T13:12:39;2.50;;;1.20;;
1020;SDS011;499;42.648;23.270;2023-03-11T13:18:01;1.00;;;0.70;;
1020;SDS011;499;42.648;23.270;2023-03-11T13:23:25;2.20;;;1.50;;
1020;SDS011;499;42.648;23.270;2023-03-11T13:26:08;3.80;;;2.30;;
1020;SDS011;499;42.648;23.270;2023-03-11T13:29:04;2.27;;;1.00;;
1020;SDS011;499;42.648;23.270;2023-03-11T13:32:06;3.43;;;1.63;;
1020;SDS011;499;42.648;23.270;2023-03-11T13:34:47;1.80;;;1.33;;
1020;SDS011;499;42.648;23.270;2023-03-11T13:37:23;1.07;;;0.77;;
1020;SDS011;499;42.648;23.270;2023-03-11T13:39:59;1.50;;;1.20;;
1020;SDS011;499;42.648;23.270;2023-03-11T13:42:41;1.60;;;0.97;;
1020;SDS011;499;42.648;23.270;2023-03-11T13:45:14;1.60;;;1.17;;
1020;SDS011;499;42.648;23.270;2023-03-11T13:47:47;1.83;;;1.53;;
1020;SDS011;499;42.648;23.270;2023-03-11T13:50:19;1.77;;;1.53;;
1020;SDS011;499;42.648;23.270;2023-03-11T13:52:53;1.40;;;1.00;;
1020;SDS011;499;42.648;23.270;2023-03-11T13:55:22;1.80;;;1.60;;
1020;SDS011;499;42.648;23.270;2023-03-11T13:57:54;1.03;;;0.80;;
1020;SDS011;499;42.648;23.270;2023-03-11T14:00:23;2.23;;;1.77;;
1020;SDS011;499;42.648;23.270;2023-03-11T14:02:55;1.20;;;0.90;;
1020;SDS011;499;42.648;23.270;2023-03-11T14:05:36;1.00;;;0.80;;
1020;SDS011;499;42.648;23.270;2023-03-11T14:08:11;1.00;;;0.90;;
1020;SDS011;499;42.648;23.270;2023-03-11T14:10:50;1.10;;;0.90;;
1020;SDS011;499;42.648;23.270;2023-03-11T14:13:18;1.10;;;0.90;;
1020;SDS011;499;42.648;23.270;2023-03-11T14:15:53;1.10;;;0.80;;
1020;SDS011;499;42.648;23.270;2023-03-11T14:18:35;1.00;;;0.80;;
1020;SDS011;499;42.648;23.270;2023-03-11T14:21:06;3.23;;;1.97;;
1020;SDS011;499;42.648;23.270;2023-03-11T14:23:40;1.90;;;1.33;;
1020;SDS011;499;42.648;23.270;2023-03-11T14:26:11;1.40;;;1.13;;
1020;SDS011;499;42.648;23.270;2023-03-11T14:28:40;1.60;;;1.20;;
1020;SDS011;499;42.648;23.270;2023-03-11T14:31:19;1.60;;;1.13;;
1020;SDS011;499;42.648;23.270;2023-03-11T14:33:53;1.20;;;1.03;;
1020;SDS011;499;42.648;23.270;2023-03-11T14:36:23;1.10;;;0.70;;
1020;SDS011;499;42.648;23.270;2023-03-11T14:38:52;1.10;;;0.93;;
1020;SDS011;499;42.648;23.270;2023-03-11T14:41:19;5.73;;;3.07;;
1020;SDS011;499;42.648;23.270;2023-03-11T14:43:49;2.80;;;1.83;;
1020;SDS011;499;42.648;23.270;2023-03-11T14:46:21;1.80;;;1.27;;
1020;SDS011;499;42.648;23.270;2023-03-11T14:48:50;1.87;;;1.57;;
1020;SDS011;499;42.648;23.270;2023-03-11T14:51:20;4.20;;;3.73;;
1020;SDS011;499;42.648;23.270;2023-03-11T14:53:56;2.37;;;1.30;;
1020;SDS011;499;42.648;23.270;2023-03-11T14:56:31;4.20;;;2.77;;
1020;SDS011;499;42.648;23.270;2023-03-11T14:59:01;1.00;;;0.80;;
1020;SDS011;499;42.648;23.270;2023-03-11T15:01:37;0.90;;;0.70;;
1020;SDS011;499;42.648;23.270;2023-03-11T15:04:06;3.10;;;2.10;;
1020;SDS011;499;42.648;23.270;2023-03-11T15:06:39;2.67;;;1.53;;
1020;SDS011;499;42.648;23.270;2023-03-11T15:09:09;1.77;;;1.67;;
1020;SDS011;499;42.648;23.270;2023-03-11T15:11:45;1.20;;;1.00;;
1020;SDS011;499;42.648;23.270;2023-03-11T15:14:18;1.53;;;0.80;;
1020;SDS011;499;42.648;23.270;2023-03-11T15:16:49;0.87;;;0.73;;
1020;SDS011;499;42.648;23.270;2023-03-11T15:19:20;2.77;;;1.93;;
1020;SDS011;499;42.648;23.270;2023-03-11T15:21:50;1.40;;;1.10;;
1020;SDS011;499;42.648;23.270;2023-03-11T15:24:20;1.00;;;0.80;;
1020;SDS011;499;42.648;23.270;2023-03-11T15:26:52;1.30;;;1.00;;
1020;SDS011;499;42.648;23.270;2023-03-11T15:29:21;1.30;;;1.10;;
1020;SDS011;499;42.648;23.270;2023-03-11T15:31:48;1.20;;;0.87;;
1020;SDS011;499;42.648;23.270;2023-03-11T15:34:28;4.73;;;2.37;;
1020;SDS011;499;42.648;23.270;2023-03-11T15:36:59;3.00;;;2.00;;
1020;SDS011;499;42.648;23.270;2023-03-11T15:39:45;2.60;;;1.67;;
1020;SDS011;499;42.648;23.270;2023-03-11T15:42:18;1.67;;;1.40;;
1020;SDS011;499;42.648;23.270;2023-03-11T15:44:48;1.70;;;1.60;;
1020;SDS011;499;42.648;23.270;2023-03-11T15:47:40;2.47;;;2.27;;